LSZA Airport Information

Runway Information
Runway 01 Length 4429 ft width 98 ft
Elevation 896 ft Threshold 361 ft Heading 19
Runway 19 Length 4429 ft Width 98 ft
Elevation 915 ft Threshold 672 ft Heading 199
Airport Frequencies
Type ATIS Name ATIS Frequency 121.175 MHZ
Type GND Name GND Frequency 121.775 MHZ
Type TWR Name TWR Frequency 120.25 MHZ
Airport Navaids
Airport Weather Information & NOTAM
ADDS - METARS form results

(0112 UTC 22 July 2019)
Data provider http://aviationweather.gov/metar/data/
 
METAR text: LSZA 220050Z AUTO VRB02KT 9999 FEW050 23/19 Q1022
Conditions at: LSZA (LUGANO (PVT/AUT), CH) observed 0050 UTC 22 July 2019
Temperature: 23.0°C (73°F)
Dewpoint: 19.0°C (66°F) [RH = 78%]
Pressure (altimeter): 30.18 inches Hg (1022.0 mb)
Winds: variable direction winds at 2 MPH (2 knots; 1.0 m/s)
Visibility: 6 or more miles (10+ km)
Ceiling: at least 12,000 feet AGL
Clouds: few clouds at 5000 feet AGL
Weather: no significant weather observed at this time

METAR text: LSZA 220020Z AUTO 35003KT 9999 FEW042 22/19 Q1022
Conditions at: LSZA (LUGANO (PVT/AUT), CH) observed 0020 UTC 22 July 2019
Temperature: 22.0°C (72°F)
Dewpoint: 19.0°C (66°F) [RH = 83%]
Pressure (altimeter): 30.18 inches Hg (1022.0 mb)
Winds: from the N (350 degrees) at 3 MPH (3 knots; 1.5 m/s)
Visibility: 6 or more miles (10+ km)
Ceiling: at least 12,000 feet AGL
Clouds: few clouds at 4200 feet AGL
Weather: no significant weather observed at this time

Forecast for: LSZA (LUGANO (PVT/AUT), CH)
Text: TAF LSZA 211425Z 2115/2124 19005KT 9999 FEW060
Forecast period: 1500 UTC 21 July 2019 to 0000 UTC 22 July 2019
Forecast type: FROM: standard forecast or significant change
Winds: from the S (190 degrees) at 6 MPH (5 knots; 2.6 m/s)
Visibility: 6 or more miles 10+ km)
Ceiling: at least 12,000 feet AGL
Clouds: few clouds at 6000 feet AGL
Weather: no significant weather forecast for this period
Text: BECMG 2115/2118 CAVOK
Forecast period: 1500 UTC 21 July 2019 to 0000 UTC 22 July 2019
Forecast type: BECOMING: Conditions expected to become as follows by 1800 UTC 21 July 2019
Winds: from the S (190 degrees) at 6 MPH (5 knots; 2.6 m/s)
Visibility: 6 or more miles 10+ km)
Ceiling: unknown
Clouds: missing
Weather: NSW  (no significant weather)